createdAt,value
2023-03-28T00:02:15.063Z,101120.16
2023-03-28T00:05:24.184Z,101119.44
2023-03-28T00:08:29.499Z,101122.19
2023-03-28T00:11:35.418Z,101115.38
2023-03-28T00:14:40.301Z,101117.13
2023-03-28T00:17:43.619Z,101103.31
2023-03-28T00:20:53.706Z,101101.69
2023-03-28T00:24:01.893Z,101100.72
2023-03-28T00:27:05.682Z,101108.22
2023-03-28T00:30:10.915Z,101111.56
2023-03-28T00:33:14.167Z,101118.34
2023-03-28T00:36:22.865Z,101125.00
2023-03-28T00:39:30.440Z,101130.06
2023-03-28T00:42:33.463Z,101137.78
2023-03-28T00:45:36.626Z,101140.91
2023-03-28T00:48:44.336Z,101142.53
2023-03-28T00:51:57.004Z,101146.66
2023-03-28T00:55:01.396Z,101139.72
2023-03-28T00:58:09.642Z,101150.69
2023-03-28T01:01:16.785Z,101148.09
2023-03-28T01:04:22.190Z,101143.81
2023-03-28T01:07:35.232Z,101154.09
2023-03-28T01:10:38.424Z,101160.13
2023-03-28T01:13:49.165Z,101165.19
2023-03-28T01:16:52.668Z,101173.75
2023-03-28T01:20:10.332Z,101178.88
2023-03-28T01:23:44.129Z,101183.09
2023-03-28T01:26:53.980Z,101190.69
2023-03-28T01:30:42.039Z,101189.06
2023-03-28T01:34:31.471Z,101195.03
2023-03-28T01:37:45.910Z,101207.06
2023-03-28T01:41:00.043Z,101207.06
2023-03-28T01:44:14.091Z,101209.50
2023-03-28T01:47:23.555Z,101212.78
2023-03-28T01:50:31.790Z,101228.00
2023-03-28T01:53:46.480Z,101224.53
2023-03-28T01:57:02.207Z,101233.97
2023-03-28T02:00:19.587Z,101222.84
2023-03-28T02:03:46.841Z,101234.75
2023-03-28T02:07:05.705Z,101242.72
2023-03-28T02:10:18.594Z,101254.22
2023-03-28T02:13:37.220Z,101233.22
2023-03-28T02:17:09.303Z,101257.41
2023-03-28T02:20:22.614Z,101256.66
2023-03-28T02:23:49.988Z,101250.72
2023-03-28T02:27:22.603Z,101245.59
2023-03-28T02:30:37.038Z,101249.84
2023-03-28T02:33:45.346Z,101247.25
2023-03-28T02:36:58.527Z,101262.63
2023-03-28T02:40:17.183Z,101255.72
2023-03-28T02:43:44.877Z,101259.16
2023-03-28T02:46:56.422Z,101260.09
2023-03-28T02:50:17.460Z,101269.47
2023-03-28T02:53:28.381Z,101261.00
2023-03-28T02:56:41.273Z,101270.34
2023-03-28T02:59:53.761Z,101273.66
2023-03-28T03:02:59.090Z,101284.75
2023-03-28T03:06:02.207Z,101279.59
2023-03-28T03:09:05.924Z,101289.72
2023-03-28T03:12:09.053Z,101293.03
2023-03-28T03:15:17.043Z,101304.06
2023-03-28T03:18:32.394Z,101303.09
2023-03-28T03:21:50.747Z,101310.75
2023-03-28T03:24:54.287Z,101317.47
2023-03-28T03:27:57.682Z,101319.13
2023-03-28T03:31:01.116Z,101323.41
2023-03-28T03:34:24.484Z,101331.19
2023-03-28T03:37:32.385Z,101333.78
2023-03-28T03:40:35.817Z,101341.56
2023-03-28T03:43:41.151Z,101348.38
2023-03-28T03:46:47.039Z,101354.47
2023-03-28T03:49:52.757Z,101360.53
2023-03-28T03:52:58.693Z,101366.50
2023-03-28T03:56:10.568Z,101371.66
2023-03-28T03:59:27.803Z,101370.91
2023-03-28T04:02:35.833Z,101376.88
2023-03-28T04:05:40.903Z,101373.53
2023-03-28T04:08:47.794Z,101370.22
2023-03-28T04:11:58.773Z,101374.50
2023-03-28T04:15:02.559Z,101386.44
2023-03-28T04:18:11.710Z,101388.19
2023-03-28T04:21:20.635Z,101393.41
2023-03-28T04:24:27.367Z,101398.53
2023-03-28T04:27:48.685Z,101406.22
2023-03-28T04:30:54.342Z,101404.56
2023-03-28T04:34:20.014Z,101415.78
2023-03-28T04:37:37.746Z,101422.59
2023-03-28T04:40:45.427Z,101430.34
2023-03-28T04:43:58.866Z,101438.88
2023-03-28T04:47:02.111Z,101439.72
2023-03-28T04:50:07.411Z,101454.13
2023-03-28T04:53:13.285Z,101456.66
2023-03-28T04:56:34.872Z,101458.31
2023-03-28T04:59:41.159Z,101465.94
2023-03-28T05:02:45.550Z,101471.06
2023-03-28T05:05:54.618Z,101479.69
2023-03-28T05:08:57.943Z,101480.50
2023-03-28T05:12:05.763Z,101484.84
2023-03-28T05:15:21.178Z,101493.41
2023-03-28T05:18:53.020Z,101495.91
2023-03-28T05:22:02.531Z,101498.41
2023-03-28T05:25:56.371Z,101499.97
2023-03-28T05:29:01.146Z,101514.44
2023-03-28T05:32:04.753Z,101513.56
2023-03-28T05:35:11.301Z,101516.25
2023-03-28T05:38:16.336Z,101531.75
2023-03-28T05:41:23.253Z,101532.75
2023-03-28T05:44:27.602Z,101545.66
2023-03-28T05:47:51.611Z,101543.09
2023-03-28T05:50:56.481Z,101545.69
2023-03-28T05:53:59.765Z,101555.03
2023-03-28T05:57:03.885Z,101565.22
2023-03-28T06:00:11.109Z,101572.91
2023-03-28T06:03:22.204Z,101574.59
2023-03-28T06:06:27.506Z,101578.00
2023-03-28T06:09:31.580Z,101576.13
2023-03-28T06:12:36.816Z,101581.25
2023-03-28T06:15:41.392Z,101592.31
2023-03-28T06:18:44.599Z,101584.63
2023-03-28T06:21:47.913Z,101599.13
2023-03-28T06:24:51.485Z,101597.34
2023-03-28T06:28:01.290Z,101597.16
2023-03-28T06:31:07.168Z,101610.78
2023-03-28T06:34:10.659Z,101609.81
2023-03-28T06:37:24.917Z,101608.09
2023-03-28T06:40:40.056Z,101615.78
2023-03-28T06:43:43.621Z,101619.06
2023-03-28T06:47:08.153Z,101624.97
2023-03-28T06:50:12.587Z,101624.03
2023-03-28T06:53:32.548Z,101633.28
2023-03-28T06:56:35.624Z,101633.19
2023-03-28T06:59:38.597Z,101625.38
2023-03-28T07:02:45.540Z,101641.75
2023-03-28T07:05:49.187Z,101644.09
2023-03-28T07:08:52.407Z,101648.31
2023-03-28T07:12:00.835Z,101643.97
2023-03-28T07:15:03.986Z,101648.97
2023-03-28T07:18:10.565Z,101654.00
2023-03-28T07:21:16.823Z,101660.84
2023-03-28T07:24:20.015Z,101663.13
2023-03-28T07:27:35.088Z,101659.59
2023-03-28T07:30:41.418Z,101666.50
2023-03-28T07:33:45.756Z,101668.06
2023-03-28T07:36:50.494Z,101674.78
2023-03-28T07:40:06.246Z,101673.06
2023-03-28T07:43:09.608Z,101680.44
2023-03-28T07:46:16.065Z,101687.09
2023-03-28T07:49:21.137Z,101691.34
2023-03-28T07:52:24.502Z,101682.59
2023-03-28T07:55:30.348Z,101691.09
2023-03-28T07:58:33.893Z,101689.34
2023-03-28T08:01:42.894Z,101687.38
2023-03-28T08:04:47.814Z,101701.78
2023-03-28T08:07:56.143Z,101700.00
2023-03-28T08:11:00.080Z,101698.84
2023-03-28T08:14:05.652Z,101697.94
2023-03-28T08:17:11.610Z,101708.34
2023-03-28T08:20:16.262Z,101705.44
2023-03-28T08:23:45.643Z,101704.16
2023-03-28T08:27:21.022Z,101711.41
2023-03-28T08:30:27.142Z,101709.44
2023-03-28T08:33:34.490Z,101714.44
2023-03-28T08:36:41.287Z,101707.19
2023-03-28T08:39:55.322Z,101711.97
2023-03-28T08:43:08.161Z,101710.16
2023-03-28T08:46:14.809Z,101717.50
2023-03-28T08:49:19.689Z,101715.50
2023-03-28T08:52:24.892Z,101714.03
2023-03-28T08:55:33.807Z,101727.94
2023-03-28T08:58:47.525Z,101725.06
2023-03-28T09:01:51.422Z,101743.25
2023-03-28T09:05:05.025Z,101724.97
2023-03-28T09:08:58.666Z,101736.34
2023-03-28T09:12:24.589Z,101745.94
2023-03-28T09:15:43.471Z,101741.50
2023-03-28T09:19:11.830Z,101745.50
2023-03-28T09:22:31.678Z,101753.28
2023-03-28T09:25:45.647Z,101761.31
2023-03-28T09:28:55.176Z,101766.69
2023-03-28T09:32:04.652Z,101760.25
2023-03-28T09:35:23.102Z,101768.09
2023-03-28T09:38:33.508Z,101778.25
2023-03-28T09:41:52.324Z,101771.78
2023-03-28T09:45:32.213Z,101774.16
2023-03-28T09:48:39.119Z,101790.09
2023-03-28T09:51:46.761Z,101784.09
2023-03-28T09:54:49.981Z,101785.09
2023-03-28T09:58:10.386Z,101790.09
2023-03-28T10:01:48.628Z,101799.44
2023-03-28T10:05:34.832Z,101797.09
2023-03-28T10:08:43.383Z,101800.22
2023-03-28T10:11:58.013Z,101785.88
2023-03-28T10:15:08.858Z,101786.59
2023-03-28T10:18:37.561Z,101794.06
2023-03-28T10:21:56.777Z,101799.13
2023-03-28T10:25:07.781Z,101785.94
2023-03-28T10:28:19.881Z,101802.31
2023-03-28T10:31:29.662Z,101809.63
2023-03-28T10:34:44.815Z,101803.09
2023-03-28T10:38:05.266Z,101801.22
2023-03-28T10:41:31.390Z,101799.22
2023-03-28T10:45:00.849Z,101797.59
2023-03-28T10:48:15.488Z,101786.19
2023-03-28T10:51:26.156Z,101790.81
2023-03-28T10:54:45.816Z,101800.69
2023-03-28T10:58:06.532Z,101788.41
2023-03-28T11:01:22.144Z,101793.41
2023-03-28T11:04:54.925Z,101798.94
2023-03-28T11:08:13.300Z,101803.19
2023-03-28T11:11:48.854Z,101804.53
2023-03-28T11:15:05.077Z,101802.78
2023-03-28T11:18:31.045Z,101811.22
2023-03-28T11:21:49.569Z,101804.31
2023-03-28T11:25:04.190Z,101797.16
2023-03-28T11:28:46.059Z,101798.06
2023-03-28T11:32:06.426Z,101797.69
2023-03-28T11:35:18.865Z,101799.69
2023-03-28T11:38:31.973Z,101798.66
2023-03-28T11:41:39.545Z,101802.41
2023-03-28T11:45:01.440Z,101823.50
2023-03-28T11:48:10.527Z,101804.81
2023-03-28T11:51:21.712Z,101803.31
2023-03-28T11:54:36.787Z,101807.59
2023-03-28T11:57:51.150Z,101803.91
2023-03-28T12:01:03.476Z,101795.78
2023-03-28T12:04:15.680Z,101790.44
2023-03-28T12:07:23.229Z,101788.44
2023-03-28T12:10:36.096Z,101803.97
2023-03-28T12:13:55.434Z,101798.31
2023-03-28T12:17:14.943Z,101785.91
2023-03-28T12:20:29.862Z,101789.06
2023-03-28T12:23:40.793Z,101793.47
2023-03-28T12:27:14.685Z,101795.50
2023-03-28T12:30:23.691Z,101802.19
2023-03-28T12:33:43.367Z,101797.72
2023-03-28T12:37:05.645Z,101794.47
2023-03-28T12:40:23.630Z,101791.66
2023-03-28T12:43:41.102Z,101789.22
2023-03-28T12:46:47.786Z,101801.59
2023-03-28T12:49:57.764Z,101805.66
2023-03-28T12:53:01.403Z,101810.41
2023-03-28T12:56:15.522Z,101807.31
2023-03-28T13:00:06.297Z,101793.25
2023-03-28T13:03:38.922Z,101792.44
2023-03-28T13:06:50.785Z,101796.13
2023-03-28T13:10:19.972Z,101795.50
2023-03-28T13:13:29.781Z,101806.81
2023-03-28T13:16:47.066Z,101800.41
2023-03-28T13:19:55.750Z,101806.06
2023-03-28T13:23:02.125Z,101800.22
2023-03-28T13:26:07.330Z,101802.91
2023-03-28T13:29:10.420Z,101796.94
2023-03-28T13:32:17.377Z,101800.22
2023-03-28T13:35:44.767Z,101806.81
2023-03-28T13:38:51.701Z,101803.94
2023-03-28T13:42:01.036Z,101805.69
2023-03-28T13:45:15.615Z,101799.09
2023-03-28T13:48:21.869Z,101792.09
2023-03-28T13:51:35.067Z,101796.38
2023-03-28T13:54:38.286Z,101797.91
2023-03-28T13:57:41.692Z,101800.34
2023-03-28T14:00:44.895Z,101802.78
2023-03-28T14:03:49.974Z,101796.19
2023-03-28T14:06:54.876Z,101782.47
2023-03-28T14:10:00.653Z,101772.16
2023-03-28T14:13:08.235Z,101778.31
2023-03-28T14:16:11.658Z,101770.31
2023-03-28T14:19:21.942Z,101786.75
2023-03-28T14:22:28.829Z,101784.44
2023-03-28T14:25:32.020Z,101789.50
2023-03-28T14:28:42.377Z,101775.16
2023-03-28T14:31:47.427Z,101772.13
2023-03-28T14:34:53.733Z,101775.09
2023-03-28T14:37:59.067Z,101787.84
2023-03-28T14:41:15.909Z,101784.97
2023-03-28T14:44:19.243Z,101771.84
2023-03-28T14:47:28.900Z,101776.97
2023-03-28T14:50:38.148Z,101762.78
2023-03-28T14:53:47.423Z,101772.88
2023-03-28T14:56:52.752Z,101775.34
2023-03-28T14:59:58.461Z,101781.38
2023-03-28T15:03:02.984Z,101783.94
2023-03-28T15:06:12.398Z,101781.59
2023-03-28T15:09:28.859Z,101777.78
2023-03-28T15:12:33.005Z,101780.22
2023-03-28T15:15:38.678Z,101782.22
2023-03-28T15:18:46.913Z,101783.72
2023-03-28T15:21:57.570Z,101788.13
2023-03-28T15:25:01.144Z,101779.63
2023-03-28T15:28:10.534Z,101775.03
2023-03-28T15:31:15.024Z,101780.19
2023-03-28T15:34:25.862Z,101777.06
2023-03-28T15:37:41.247Z,101775.13
2023-03-28T15:40:49.641Z,101788.72
2023-03-28T15:44:11.603Z,101781.50
2023-03-28T15:47:22.501Z,101776.56
2023-03-28T15:50:33.233Z,101780.28
2023-03-28T15:53:38.777Z,101773.91
2023-03-28T15:56:46.930Z,101784.06
2023-03-28T15:59:53.880Z,101786.47
2023-03-28T16:03:32.700Z,101788.19
2023-03-28T16:06:41.935Z,101776.97
2023-03-28T16:09:47.810Z,101773.72
2023-03-28T16:12:51.409Z,101784.19
2023-03-28T16:16:23.905Z,101780.00
2023-03-28T16:19:36.061Z,101785.91
2023-03-28T16:22:39.149Z,101777.81
2023-03-28T16:25:45.123Z,101777.72
2023-03-28T16:28:48.141Z,101779.50
2023-03-28T16:31:51.205Z,101773.72
2023-03-28T16:34:57.565Z,101773.78
2023-03-28T16:38:03.467Z,101778.84
2023-03-28T16:41:08.514Z,101781.16
2023-03-28T16:44:11.875Z,101775.06
2023-03-28T16:47:15.640Z,101781.91
2023-03-28T16:50:18.894Z,101780.47
2023-03-28T16:53:22.181Z,101772.97
2023-03-28T16:56:27.440Z,101780.56
2023-03-28T16:59:30.517Z,101777.69
2023-03-28T17:02:33.702Z,101770.78
2023-03-28T17:05:41.069Z,101773.44
2023-03-28T17:08:44.993Z,101779.38
2023-03-28T17:11:53.165Z,101766.75
2023-03-28T17:14:56.380Z,101758.69
2023-03-28T17:17:59.477Z,101769.06
2023-03-28T17:21:06.205Z,101763.19
2023-03-28T17:24:11.547Z,101769.38
2023-03-28T17:27:16.285Z,101766.88
2023-03-28T17:30:19.716Z,101766.88
2023-03-28T17:33:25.718Z,101753.63
2023-03-28T17:36:30.705Z,101758.78
2023-03-28T17:39:36.536Z,101760.00
2023-03-28T17:42:40.837Z,101759.94
2023-03-28T17:45:44.282Z,101762.59
2023-03-28T17:48:47.753Z,101770.22
2023-03-28T17:51:53.820Z,101769.75
2023-03-28T17:55:01.114Z,101763.66
2023-03-28T17:58:06.237Z,101771.78
2023-03-28T18:01:11.603Z,101762.91
2023-03-28T18:04:16.208Z,101766.16
2023-03-28T18:07:37.887Z,101764.19
2023-03-28T18:10:42.921Z,101772.56
2023-03-28T18:13:57.620Z,101772.50
2023-03-28T18:17:02.314Z,101772.13
2023-03-28T18:20:08.514Z,101773.25
2023-03-28T18:23:18.527Z,101765.00
2023-03-28T18:26:22.597Z,101769.78
2023-03-28T18:29:27.000Z,101772.81
2023-03-28T18:32:30.054Z,101765.72
2023-03-28T18:35:35.371Z,101771.94
2023-03-28T18:38:39.761Z,101769.53
2023-03-28T18:41:46.177Z,101772.31
2023-03-28T18:44:50.536Z,101773.25
2023-03-28T18:47:53.642Z,101775.97
2023-03-28T18:50:57.168Z,101769.50
2023-03-28T18:54:00.836Z,101778.41
2023-03-28T18:57:04.659Z,101775.81
2023-03-28T19:00:14.992Z,101787.84
2023-03-28T19:03:18.838Z,101778.41
2023-03-28T19:06:22.187Z,101786.84
2023-03-28T19:09:28.739Z,101777.53
2023-03-28T19:12:31.878Z,101778.63
2023-03-28T19:15:36.957Z,101777.84
2023-03-28T19:18:45.292Z,101778.78
2023-03-28T19:21:48.379Z,101784.13
2023-03-28T19:24:51.653Z,101776.56
2023-03-28T19:27:57.615Z,101784.59
2023-03-28T19:31:04.282Z,101783.06
2023-03-28T19:34:08.275Z,101780.34
2023-03-28T19:37:11.246Z,101776.88
2023-03-28T19:40:17.142Z,101777.00
2023-03-28T19:43:23.724Z,101782.91
2023-03-28T19:46:33.160Z,101780.50
2023-03-28T19:49:38.034Z,101776.25
2023-03-28T19:52:43.569Z,101777.19
2023-03-28T19:55:53.044Z,101771.25
2023-03-28T19:58:55.998Z,101767.72
2023-03-28T20:02:00.498Z,101777.75
2023-03-28T20:05:03.624Z,101764.91
2023-03-28T20:08:08.638Z,101772.88
2023-03-28T20:11:14.458Z,101771.25
2023-03-28T20:14:20.144Z,101768.84
2023-03-28T20:17:24.533Z,101762.13
2023-03-28T20:20:27.564Z,101768.28
2023-03-28T20:23:32.665Z,101760.59
2023-03-28T20:26:36.308Z,101771.09
2023-03-28T20:29:44.456Z,101770.25
2023-03-28T20:32:49.568Z,101766.94
2023-03-28T20:35:54.098Z,101756.88
2023-03-28T20:38:57.140Z,101757.81
2023-03-28T20:42:03.152Z,101758.06
2023-03-28T20:45:09.137Z,101755.75
2023-03-28T20:48:16.224Z,101749.00
2023-03-28T20:51:22.247Z,101749.06
2023-03-28T20:54:27.833Z,101742.38
2023-03-28T20:57:30.850Z,101739.06
2023-03-28T21:00:35.680Z,101737.44
2023-03-28T21:03:48.231Z,101733.22
2023-03-28T21:06:51.365Z,101738.50
2023-03-28T21:09:55.851Z,101732.66
2023-03-28T21:12:58.842Z,101735.31
2023-03-28T21:16:02.121Z,101736.19
2023-03-28T21:19:08.254Z,101728.59
2023-03-28T21:22:11.619Z,101731.25
2023-03-28T21:25:14.627Z,101730.47
2023-03-28T21:28:17.674Z,101725.25
2023-03-28T21:31:24.745Z,101721.84
2023-03-28T21:34:33.863Z,101727.88
2023-03-28T21:37:37.298Z,101714.22
2023-03-28T21:40:40.585Z,101721.84
2023-03-28T21:43:44.412Z,101725.28
2023-03-28T21:46:47.387Z,101726.25
2023-03-28T21:49:53.312Z,101724.50
2023-03-28T21:52:56.256Z,101718.53
2023-03-28T21:55:59.915Z,101719.28
2023-03-28T21:59:03.267Z,101710.69
2023-03-28T22:02:06.350Z,101712.41
2023-03-28T22:05:26.249Z,101705.63
2023-03-28T22:08:31.706Z,101702.13
2023-03-28T22:11:35.038Z,101700.41
2023-03-28T22:14:38.661Z,101708.25
2023-03-28T22:17:45.874Z,101707.50
2023-03-28T22:20:54.302Z,101710.91
2023-03-28T22:23:57.564Z,101705.91
2023-03-28T22:27:02.032Z,101704.25
2023-03-28T22:30:09.045Z,101706.97
2023-03-28T22:33:14.268Z,101707.78
2023-03-28T22:36:19.016Z,101697.63
2023-03-28T22:39:22.436Z,101693.44
2023-03-28T22:42:25.693Z,101699.53
2023-03-28T22:45:29.054Z,101693.50
2023-03-28T22:48:32.084Z,101685.88
2023-03-28T22:51:46.158Z,101692.97
2023-03-28T22:54:49.348Z,101693.94
2023-03-28T22:57:53.537Z,101694.81
2023-03-28T23:00:56.663Z,101689.78
2023-03-28T23:04:02.193Z,101683.91
2023-03-28T23:07:06.877Z,101671.94
2023-03-28T23:10:15.964Z,101677.19
2023-03-28T23:13:19.084Z,101677.34
2023-03-28T23:16:22.130Z,101670.50
2023-03-28T23:19:26.480Z,101669.69
2023-03-28T23:22:32.179Z,101668.00
2023-03-28T23:25:35.485Z,101669.97
2023-03-28T23:28:41.597Z,101663.16
2023-03-28T23:31:45.791Z,101662.34
2023-03-28T23:34:49.919Z,101665.03
2023-03-28T23:37:54.201Z,101653.91
2023-03-28T23:40:57.163Z,101654.09
2023-03-28T23:44:00.117Z,101654.19
2023-03-28T23:47:03.106Z,101648.22
2023-03-28T23:50:08.767Z,101639.56
2023-03-28T23:53:13.389Z,101637.78
2023-03-28T23:56:16.482Z,101625.69
2023-03-28T23:59:19.532Z,101622.22
